createdAt,value
2023-03-30T00:01:57.881Z,20.43
2023-03-30T00:04:27.332Z,20.40
2023-03-30T00:06:55.498Z,18.13
2023-03-30T00:09:23.450Z,18.93
2023-03-30T00:11:51.339Z,18.30
2023-03-30T00:14:21.463Z,18.63
2023-03-30T00:16:51.072Z,19.10
2023-03-30T00:19:19.016Z,18.13
2023-03-30T00:21:47.387Z,17.13
2023-03-30T00:24:15.496Z,17.73
2023-03-30T00:26:43.399Z,15.43
2023-03-30T00:29:11.604Z,17.63
2023-03-30T00:31:39.506Z,14.77
2023-03-30T00:34:09.679Z,18.27
2023-03-30T00:36:37.544Z,16.83
2023-03-30T00:39:06.650Z,17.67
2023-03-30T00:41:34.625Z,14.67
2023-03-30T00:44:04.310Z,19.00
2023-03-30T00:46:33.284Z,14.97
2023-03-30T00:49:05.350Z,16.67
2023-03-30T00:51:36.738Z,15.77
2023-03-30T00:54:08.120Z,13.17
2023-03-30T00:56:36.083Z,16.03
2023-03-30T00:59:04.255Z,16.17
2023-03-30T01:01:38.639Z,13.60
2023-03-30T01:04:08.903Z,15.53
2023-03-30T01:06:40.479Z,16.77
2023-03-30T01:09:09.512Z,13.83
2023-03-30T01:11:37.621Z,14.33
2023-03-30T01:14:07.845Z,15.67
2023-03-30T01:16:44.225Z,14.57
2023-03-30T01:19:37.064Z,15.97
2023-03-30T01:22:20.738Z,15.00
2023-03-30T01:25:21.303Z,13.77
2023-03-30T01:28:08.986Z,13.53
2023-03-30T01:30:47.016Z,15.97
2023-03-30T01:33:30.693Z,14.20
2023-03-30T01:36:25.135Z,16.80
2023-03-30T01:39:15.043Z,16.17
2023-03-30T01:41:51.700Z,14.90
2023-03-30T01:44:24.214Z,15.50
2023-03-30T01:46:54.007Z,13.10
2023-03-30T01:49:25.572Z,15.37
2023-03-30T01:52:01.225Z,16.57
2023-03-30T01:54:33.418Z,14.77
2023-03-30T01:57:05.664Z,15.33
2023-03-30T01:59:37.290Z,17.33
2023-03-30T02:02:07.285Z,15.67
2023-03-30T02:04:39.923Z,13.50
2023-03-30T02:07:10.118Z,11.07
2023-03-30T02:09:41.450Z,16.53
2023-03-30T02:12:11.192Z,13.23
2023-03-30T02:14:41.085Z,12.63
2023-03-30T02:17:12.717Z,13.87
2023-03-30T02:19:42.120Z,12.70
2023-03-30T02:22:10.043Z,15.57
2023-03-30T02:24:39.446Z,13.57
2023-03-30T02:27:07.957Z,14.27
2023-03-30T02:29:37.154Z,13.50
2023-03-30T02:32:05.361Z,13.33
2023-03-30T02:34:47.779Z,12.40
2023-03-30T02:37:33.995Z,12.83
2023-03-30T02:40:13.490Z,14.67
2023-03-30T02:42:53.409Z,14.87
2023-03-30T02:45:31.454Z,12.87
2023-03-30T02:48:13.680Z,10.83
2023-03-30T02:50:45.737Z,11.67
2023-03-30T02:53:19.040Z,12.07
2023-03-30T02:55:52.656Z,12.10
2023-03-30T02:58:25.532Z,13.30
2023-03-30T03:00:57.431Z,10.97
2023-03-30T03:03:31.772Z,14.40
2023-03-30T03:06:02.638Z,14.67
2023-03-30T03:08:35.248Z,11.57
2023-03-30T03:11:05.163Z,13.20
2023-03-30T03:13:33.244Z,9.77
2023-03-30T03:16:02.821Z,11.50
2023-03-30T03:18:32.412Z,12.83
2023-03-30T03:21:00.435Z,10.17
2023-03-30T03:23:28.435Z,14.97
2023-03-30T03:25:56.322Z,11.07
2023-03-30T03:28:25.594Z,16.67
2023-03-30T03:30:54.308Z,14.57
2023-03-30T03:33:22.665Z,14.10
2023-03-30T03:35:54.269Z,13.07
2023-03-30T03:38:22.885Z,12.50
2023-03-30T03:40:51.949Z,13.60
2023-03-30T03:43:20.171Z,13.03
2023-03-30T03:45:50.319Z,12.80
2023-03-30T03:48:19.703Z,11.00
2023-03-30T03:50:51.056Z,12.50
2023-03-30T03:53:18.969Z,11.43
2023-03-30T03:55:47.144Z,10.80
2023-03-30T03:58:15.243Z,12.33
2023-03-30T04:00:43.236Z,10.40
2023-03-30T04:03:12.604Z,11.80
2023-03-30T04:05:41.758Z,11.57
2023-03-30T04:08:11.177Z,11.37
2023-03-30T04:10:39.546Z,10.40
2023-03-30T04:13:07.532Z,13.30
2023-03-30T04:15:35.569Z,11.27
2023-03-30T04:18:05.415Z,10.17
2023-03-30T04:20:34.858Z,12.57
2023-03-30T04:23:02.826Z,12.57
2023-03-30T04:25:31.204Z,9.37
2023-03-30T04:27:59.096Z,10.47
2023-03-30T04:30:30.532Z,10.43
2023-03-30T04:33:04.680Z,16.37
2023-03-30T04:35:35.323Z,11.07
2023-03-30T04:38:03.397Z,10.30
2023-03-30T04:40:31.374Z,11.03
2023-03-30T04:43:02.689Z,13.53
2023-03-30T04:45:30.852Z,10.47
2023-03-30T04:47:58.919Z,10.60
2023-03-30T04:50:27.199Z,8.50
2023-03-30T04:52:56.500Z,8.93
2023-03-30T04:55:24.386Z,10.50
2023-03-30T04:57:52.265Z,9.70
2023-03-30T05:00:21.291Z,12.20
2023-03-30T05:02:49.259Z,6.33
2023-03-30T05:05:17.418Z,10.20
2023-03-30T05:07:46.556Z,7.73
2023-03-30T05:10:16.064Z,15.30
2023-03-30T05:12:43.964Z,8.67
2023-03-30T05:15:12.321Z,9.67
2023-03-30T05:17:40.326Z,10.07
2023-03-30T05:20:10.183Z,8.00
2023-03-30T05:22:38.160Z,8.30
2023-03-30T05:25:07.265Z,9.97
2023-03-30T05:27:36.623Z,6.80
2023-03-30T05:30:05.143Z,7.83
2023-03-30T05:32:33.073Z,4.90
2023-03-30T05:35:01.405Z,7.90
2023-03-30T05:37:29.295Z,6.73
2023-03-30T05:39:57.674Z,7.40
2023-03-30T05:42:25.738Z,7.50
2023-03-30T05:44:54.991Z,8.07
2023-03-30T05:47:23.050Z,8.67
2023-03-30T05:49:51.043Z,9.50
2023-03-30T05:52:18.918Z,6.87
2023-03-30T05:54:46.855Z,8.17
2023-03-30T05:57:14.783Z,6.33
2023-03-30T05:59:42.787Z,10.83
2023-03-30T06:02:13.212Z,10.47
2023-03-30T06:04:41.303Z,10.67
2023-03-30T06:07:09.301Z,7.27
2023-03-30T06:09:37.504Z,6.93
2023-03-30T06:12:06.051Z,7.43
2023-03-30T06:14:33.978Z,8.00
2023-03-30T06:17:02.019Z,6.77
2023-03-30T06:19:31.348Z,9.83
2023-03-30T06:21:59.297Z,7.97
2023-03-30T06:24:27.251Z,6.33
2023-03-30T06:26:55.967Z,6.67
2023-03-30T06:29:24.160Z,9.33
2023-03-30T06:31:52.337Z,10.47
2023-03-30T06:34:20.558Z,7.40
2023-03-30T06:36:50.722Z,7.33
2023-03-30T06:39:18.673Z,6.50
2023-03-30T06:41:46.585Z,9.30
2023-03-30T06:44:15.676Z,8.47
2023-03-30T06:46:43.707Z,9.13
2023-03-30T06:49:13.204Z,4.23
2023-03-30T06:51:42.060Z,5.30
2023-03-30T06:54:11.857Z,6.50
2023-03-30T06:56:40.362Z,6.47
2023-03-30T06:59:08.382Z,9.60
2023-03-30T07:01:37.196Z,6.13
2023-03-30T07:04:05.646Z,7.50
2023-03-30T07:06:33.589Z,5.63
2023-03-30T07:09:01.964Z,8.27
2023-03-30T07:11:31.304Z,5.60
2023-03-30T07:14:01.208Z,5.50
2023-03-30T07:16:29.305Z,8.07
2023-03-30T07:18:57.796Z,5.00
2023-03-30T07:21:25.757Z,4.97
2023-03-30T07:23:53.662Z,7.27
2023-03-30T07:26:21.534Z,6.47
2023-03-30T07:28:50.929Z,5.57
2023-03-30T07:31:20.218Z,7.13
2023-03-30T07:33:48.957Z,12.27
2023-03-30T07:36:16.995Z,9.37
2023-03-30T07:38:44.900Z,5.53
2023-03-30T07:41:14.584Z,6.43
2023-03-30T07:43:43.400Z,7.77
2023-03-30T07:46:13.604Z,5.17
2023-03-30T07:48:42.073Z,5.10
2023-03-30T07:51:11.133Z,5.20
2023-03-30T07:53:39.740Z,5.13
2023-03-30T07:56:08.228Z,6.57
2023-03-30T07:58:37.113Z,4.30
2023-03-30T08:01:05.424Z,6.83
2023-03-30T08:03:35.139Z,6.00
2023-03-30T08:06:05.613Z,7.90
2023-03-30T08:08:34.452Z,4.97
2023-03-30T08:11:02.735Z,5.53
2023-03-30T08:13:32.846Z,4.67
2023-03-30T08:16:01.306Z,4.50
2023-03-30T08:18:29.381Z,4.90
2023-03-30T08:20:58.716Z,4.37
2023-03-30T08:23:27.086Z,8.53
2023-03-30T08:25:58.103Z,5.53
2023-03-30T08:28:26.809Z,5.63
2023-03-30T08:30:55.416Z,5.00
2023-03-30T08:33:24.229Z,5.87
2023-03-30T08:35:52.577Z,5.87
2023-03-30T08:38:21.930Z,3.87
2023-03-30T08:40:51.126Z,4.10
2023-03-30T08:43:43.143Z,8.30
2023-03-30T08:46:14.756Z,8.10
2023-03-30T08:48:43.143Z,4.50
2023-03-30T08:51:20.581Z,5.63
2023-03-30T08:53:52.073Z,5.97
2023-03-30T08:56:22.922Z,6.47
2023-03-30T08:58:57.548Z,5.00
2023-03-30T09:01:28.183Z,10.23
2023-03-30T09:04:04.597Z,8.30
2023-03-30T09:06:46.013Z,5.60
2023-03-30T09:09:18.696Z,7.33
2023-03-30T09:11:49.576Z,6.90
2023-03-30T09:14:20.872Z,7.67
2023-03-30T09:16:52.984Z,5.87
2023-03-30T09:19:25.131Z,5.10
2023-03-30T09:21:55.454Z,5.00
2023-03-30T09:24:26.737Z,10.13
2023-03-30T09:27:00.268Z,5.40
2023-03-30T09:29:30.171Z,6.43
2023-03-30T09:32:05.874Z,7.27
2023-03-30T09:34:40.313Z,5.33
2023-03-30T09:37:11.231Z,5.43
2023-03-30T09:39:41.385Z,6.53
2023-03-30T09:42:14.916Z,4.67
2023-03-30T09:44:47.374Z,6.40
2023-03-30T09:47:23.101Z,5.40
2023-03-30T09:49:57.002Z,4.87
2023-03-30T09:52:26.855Z,6.37
2023-03-30T09:54:57.381Z,5.97
2023-03-30T09:57:28.131Z,6.33
2023-03-30T09:59:56.920Z,4.50
2023-03-30T10:02:27.815Z,6.77
2023-03-30T10:05:04.439Z,24.83
2023-03-30T10:07:35.217Z,13.07
2023-03-30T10:10:16.186Z,16.03
2023-03-30T10:12:44.190Z,19.27
2023-03-30T10:15:17.110Z,8.70
2023-03-30T10:17:47.180Z,13.40
2023-03-30T10:20:27.892Z,6.17
2023-03-30T10:22:57.200Z,10.27
2023-03-30T10:25:29.713Z,10.47
2023-03-30T10:28:03.039Z,3.50
2023-03-30T10:30:31.726Z,6.60
2023-03-30T10:33:01.273Z,4.93
2023-03-30T10:35:34.470Z,4.60
2023-03-30T10:38:03.272Z,4.33
2023-03-30T10:40:36.791Z,4.87
2023-03-30T10:43:06.590Z,4.07
2023-03-30T10:45:38.034Z,3.73
2023-03-30T10:48:20.413Z,5.33
2023-03-30T10:50:57.546Z,4.10
2023-03-30T10:53:37.240Z,7.43
2023-03-30T10:56:14.684Z,3.30
2023-03-30T10:58:53.505Z,2.93
2023-03-30T11:01:29.495Z,4.07
2023-03-30T11:04:12.402Z,3.47
2023-03-30T11:06:49.963Z,3.37
2023-03-30T11:09:23.094Z,1.63
2023-03-30T11:11:54.942Z,2.27
2023-03-30T11:14:24.997Z,4.23
2023-03-30T11:17:00.126Z,3.83
2023-03-30T11:19:35.109Z,3.33
2023-03-30T11:22:08.782Z,5.30
2023-03-30T11:24:36.940Z,4.10
2023-03-30T11:27:12.115Z,3.40
2023-03-30T11:29:44.790Z,4.33
2023-03-30T11:32:21.962Z,24.87
2023-03-30T11:35:02.956Z,4.30
2023-03-30T11:37:35.461Z,4.07
2023-03-30T11:40:19.092Z,4.43
2023-03-30T11:43:15.035Z,3.73
2023-03-30T11:45:57.547Z,4.60
2023-03-30T11:52:29.203Z,5.93
2023-03-30T11:55:29.916Z,2.87
2023-03-30T11:58:14.712Z,2.23
2023-03-30T12:01:02.338Z,5.10
2023-03-30T12:03:48.348Z,4.30
2023-03-30T12:06:41.492Z,5.27
2023-03-30T12:09:34.115Z,5.53
2023-03-30T12:12:12.076Z,7.63
2023-03-30T12:15:11.518Z,5.03
2023-03-30T12:17:54.591Z,10.30
2023-03-30T12:20:35.867Z,11.60
2023-03-30T12:23:43.648Z,10.43
2023-03-30T12:26:28.126Z,11.03
2023-03-30T12:32:10.157Z,14.60
2023-03-30T12:34:47.213Z,11.97
2023-03-30T12:37:19.353Z,18.47
2023-03-30T12:39:49.974Z,10.93
2023-03-30T12:42:27.346Z,11.57
2023-03-30T12:45:11.157Z,9.47
2023-03-30T12:47:54.952Z,3.07
2023-03-30T12:50:32.969Z,7.17
2023-03-30T12:53:27.400Z,7.13
2023-03-30T12:56:02.084Z,5.87
2023-03-30T12:58:59.416Z,6.10
2023-03-30T13:01:36.554Z,9.70
2023-03-30T13:04:08.723Z,5.30
2023-03-30T13:06:39.201Z,9.57
2023-03-30T13:09:35.505Z,3.27
2023-03-30T13:12:34.634Z,7.87
2023-03-30T13:15:06.929Z,5.83
2023-03-30T13:17:58.246Z,4.10
2023-03-30T13:20:32.868Z,5.77
2023-03-30T13:23:07.233Z,4.20
2023-03-30T13:25:40.175Z,5.53
2023-03-30T13:28:45.477Z,3.20
2023-03-30T13:31:25.223Z,5.77
2023-03-30T13:33:58.717Z,7.50
2023-03-30T13:36:29.620Z,3.67
2023-03-30T13:39:05.684Z,7.33
2023-03-30T13:41:41.483Z,4.97
2023-03-30T13:44:21.928Z,3.20
2023-03-30T13:46:53.242Z,4.17
2023-03-30T13:49:35.736Z,2.10
2023-03-30T13:52:07.189Z,6.50
2023-03-30T13:54:36.020Z,6.80
2023-03-30T13:57:09.614Z,2.57
2023-03-30T13:59:40.269Z,8.73
2023-03-30T14:02:09.233Z,4.77
2023-03-30T14:04:39.118Z,5.53
2023-03-30T14:07:16.199Z,2.90
2023-03-30T14:09:44.930Z,4.73
2023-03-30T14:12:14.038Z,1.90
2023-03-30T14:14:47.187Z,4.43
2023-03-30T14:17:20.046Z,4.77
2023-03-30T14:19:58.516Z,4.07
2023-03-30T14:22:29.115Z,4.40
2023-03-30T14:24:58.925Z,5.43
2023-03-30T14:27:27.161Z,2.67
2023-03-30T14:29:55.246Z,2.40
2023-03-30T14:32:25.181Z,3.40
2023-03-30T14:34:54.640Z,1.37
2023-03-30T14:37:24.312Z,4.03
2023-03-30T14:39:54.981Z,5.43
2023-03-30T14:42:25.639Z,5.97
2023-03-30T14:44:58.248Z,3.90
2023-03-30T14:47:27.630Z,4.97
2023-03-30T14:49:58.250Z,6.03
2023-03-30T14:52:30.119Z,4.73
2023-03-30T14:55:07.236Z,5.47
2023-03-30T14:57:38.937Z,3.83
2023-03-30T15:00:20.591Z,4.47
2023-03-30T15:02:50.917Z,3.07
2023-03-30T15:05:19.468Z,3.83
2023-03-30T15:07:49.391Z,6.70
2023-03-30T15:10:27.043Z,2.70
2023-03-30T15:12:57.069Z,7.23
2023-03-30T15:15:27.872Z,2.70
2023-03-30T15:17:56.550Z,2.63
2023-03-30T15:20:27.152Z,4.10
2023-03-30T15:22:55.292Z,4.47
2023-03-30T15:25:31.401Z,2.93
2023-03-30T15:28:02.166Z,4.70
2023-03-30T15:30:32.517Z,10.53
2023-03-30T15:33:00.727Z,5.70
2023-03-30T15:35:30.274Z,5.40
2023-03-30T15:37:59.923Z,4.13
2023-03-30T15:40:34.798Z,5.43
2023-03-30T15:43:17.039Z,4.70
2023-03-30T15:45:53.607Z,5.07
2023-03-30T15:48:24.373Z,5.27
2023-03-30T15:50:56.837Z,4.80
2023-03-30T15:53:34.349Z,5.20
2023-03-30T15:56:04.195Z,6.70
2023-03-30T15:58:32.098Z,6.23
2023-03-30T16:01:00.130Z,6.70
2023-03-30T16:03:40.723Z,6.90
2023-03-30T16:06:12.883Z,10.57
2023-03-30T16:08:43.567Z,7.40
2023-03-30T16:11:15.309Z,6.20
2023-03-30T16:13:43.755Z,4.57
2023-03-30T16:16:13.984Z,6.30
2023-03-30T16:18:42.936Z,5.27
2023-03-30T16:21:12.470Z,10.63
2023-03-30T16:23:40.805Z,3.97
2023-03-30T16:26:09.762Z,9.23
2023-03-30T16:28:40.797Z,4.70
2023-03-30T16:31:14.262Z,5.60
2023-03-30T16:33:43.418Z,5.00
2023-03-30T16:36:14.923Z,10.40
2023-03-30T16:38:42.945Z,5.03
2023-03-30T16:41:12.980Z,8.60
2023-03-30T16:43:42.330Z,9.53
2023-03-30T16:46:12.311Z,6.60
2023-03-30T16:48:40.516Z,5.47
2023-03-30T16:51:08.731Z,8.43
2023-03-30T16:53:36.664Z,6.10
2023-03-30T16:56:04.903Z,7.03
2023-03-30T16:58:32.796Z,7.77
2023-03-30T17:01:04.677Z,5.63
2023-03-30T17:03:32.841Z,5.07
2023-03-30T17:06:00.747Z,6.10
2023-03-30T17:08:29.320Z,9.00
2023-03-30T17:11:00.934Z,9.20
2023-03-30T17:13:29.068Z,11.57
2023-03-30T17:15:58.406Z,8.53
2023-03-30T17:18:28.502Z,7.70
2023-03-30T17:20:57.496Z,9.87
2023-03-30T17:23:27.126Z,8.83
2023-03-30T17:25:56.388Z,7.20
2023-03-30T17:28:25.598Z,7.80
2023-03-30T17:30:55.054Z,6.60
2023-03-30T17:33:23.539Z,8.07
2023-03-30T17:35:55.361Z,5.43
2023-03-30T17:38:23.451Z,9.37
2023-03-30T17:40:51.466Z,6.23
2023-03-30T17:43:19.409Z,9.03
2023-03-30T17:45:47.458Z,5.70
2023-03-30T17:48:17.553Z,8.90
2023-03-30T17:50:47.917Z,3.50
2023-03-30T17:53:18.082Z,12.60
2023-03-30T17:55:47.031Z,8.50
2023-03-30T17:58:18.198Z,7.77
2023-03-30T18:00:47.392Z,8.30
2023-03-30T18:03:15.874Z,6.13
2023-03-30T18:05:44.731Z,8.03
2023-03-30T18:08:17.231Z,8.07
2023-03-30T18:10:48.041Z,7.63
2023-03-30T18:13:16.641Z,5.57
2023-03-30T18:15:45.949Z,2.37
2023-03-30T18:18:22.448Z,7.27
2023-03-30T18:20:51.305Z,8.07
2023-03-30T18:23:19.696Z,10.70
2023-03-30T18:25:49.373Z,8.30
2023-03-30T18:28:18.742Z,4.93
2023-03-30T18:30:46.854Z,11.27
2023-03-30T18:33:16.145Z,5.40
2023-03-30T18:35:44.757Z,12.40
2023-03-30T18:38:13.568Z,5.37
2023-03-30T18:40:44.592Z,9.90
2023-03-30T18:43:14.182Z,8.17
2023-03-30T18:45:43.316Z,14.07
2023-03-30T18:48:13.748Z,8.30
2023-03-30T18:50:43.263Z,5.07
2023-03-30T18:53:13.214Z,7.03
2023-03-30T18:55:42.822Z,6.97
2023-03-30T18:58:15.404Z,7.40
2023-03-30T19:00:43.938Z,9.97
2023-03-30T19:03:13.204Z,7.73
2023-03-30T19:05:42.003Z,12.60
2023-03-30T19:08:12.125Z,9.53
2023-03-30T19:10:41.948Z,7.10
2023-03-30T19:13:14.818Z,8.50
2023-03-30T19:15:43.305Z,8.50
2023-03-30T19:18:11.536Z,4.63
2023-03-30T19:20:41.450Z,6.90
2023-03-30T19:23:10.691Z,11.90
2023-03-30T19:25:38.618Z,9.03
2023-03-30T19:28:07.353Z,11.60
2023-03-30T19:30:39.523Z,7.67
2023-03-30T19:33:09.984Z,9.43
2023-03-30T19:35:40.796Z,8.90
2023-03-30T19:38:08.759Z,9.03
2023-03-30T19:40:37.879Z,12.60
2023-03-30T19:43:05.824Z,11.57
2023-03-30T19:45:33.873Z,9.10
2023-03-30T19:48:03.181Z,12.00
2023-03-30T19:50:31.757Z,7.83
2023-03-30T19:52:59.807Z,8.23
2023-03-30T19:55:27.915Z,12.80
2023-03-30T19:57:55.857Z,10.90
2023-03-30T20:00:24.075Z,9.73
2023-03-30T20:02:53.485Z,9.40
2023-03-30T20:05:24.537Z,7.80
2023-03-30T20:07:52.747Z,7.93
2023-03-30T20:10:22.765Z,7.10
2023-03-30T20:12:51.601Z,9.13
2023-03-30T20:15:20.742Z,11.73
2023-03-30T20:17:48.849Z,8.67
2023-03-30T20:20:25.156Z,8.97
2023-03-30T20:22:56.482Z,15.17
2023-03-30T20:25:24.978Z,9.93
2023-03-30T20:27:53.111Z,14.90
2023-03-30T20:30:21.676Z,13.90
2023-03-30T20:33:03.902Z,10.53
2023-03-30T20:35:36.542Z,8.47
2023-03-30T20:38:06.634Z,8.33
2023-03-30T20:40:34.585Z,8.37
2023-03-30T20:43:03.385Z,8.40
2023-03-30T20:45:31.865Z,14.13
2023-03-30T20:48:16.238Z,10.33
2023-03-30T20:50:44.226Z,10.93
2023-03-30T20:53:13.549Z,11.10
2023-03-30T20:55:41.454Z,11.17
2023-03-30T20:58:09.361Z,10.97
2023-03-30T21:00:37.328Z,7.70
2023-03-30T21:03:06.069Z,10.73
2023-03-30T21:05:34.073Z,9.17
2023-03-30T21:08:02.055Z,14.87
2023-03-30T21:10:31.421Z,8.40
2023-03-30T21:12:59.352Z,11.70
2023-03-30T21:15:27.260Z,14.77
2023-03-30T21:17:55.448Z,9.10
2023-03-30T21:20:23.650Z,10.23
2023-03-30T21:22:51.585Z,10.37
2023-03-30T21:25:19.517Z,12.17
2023-03-30T21:27:48.804Z,13.43
2023-03-30T21:30:16.998Z,10.63
2023-03-30T21:32:44.916Z,9.73
2023-03-30T21:35:12.853Z,11.90
2023-03-30T21:37:40.862Z,17.00
2023-03-30T21:40:09.801Z,11.53
2023-03-30T21:42:37.678Z,8.50
2023-03-30T21:45:08.026Z,17.63
2023-03-30T21:47:35.977Z,11.37
2023-03-30T21:50:04.387Z,8.43
2023-03-30T21:52:33.509Z,9.23
2023-03-30T21:55:01.414Z,12.60
2023-03-30T21:57:30.178Z,12.63
2023-03-30T21:59:58.139Z,10.60
2023-03-30T22:02:27.527Z,7.00
2023-03-30T22:04:55.561Z,10.87
2023-03-30T22:07:23.536Z,11.33
2023-03-30T22:09:51.445Z,11.20
2023-03-30T22:12:20.576Z,14.20
2023-03-30T22:14:48.495Z,15.47
2023-03-30T22:17:18.729Z,13.13
2023-03-30T22:19:51.960Z,13.50
2023-03-30T22:22:19.855Z,17.50
2023-03-30T22:24:47.769Z,7.00
2023-03-30T22:27:16.386Z,10.03
2023-03-30T22:29:44.290Z,9.20
2023-03-30T22:32:12.247Z,9.53
2023-03-30T22:34:41.021Z,11.10
2023-03-30T22:37:10.316Z,8.70
2023-03-30T22:39:39.159Z,9.67
2023-03-30T22:42:07.183Z,13.13
2023-03-30T22:44:35.100Z,14.27
2023-03-30T22:47:03.087Z,8.23
2023-03-30T22:49:31.185Z,9.27
2023-03-30T22:52:02.305Z,7.97
2023-03-30T22:54:31.831Z,8.00
2023-03-30T22:57:00.141Z,10.23
2023-03-30T22:59:28.208Z,10.47
2023-03-30T23:01:56.079Z,9.53
2023-03-30T23:04:24.755Z,11.63
2023-03-30T23:06:54.855Z,7.77
2023-03-30T23:09:22.967Z,10.27
2023-03-30T23:11:53.713Z,8.87
2023-03-30T23:14:21.878Z,13.30
2023-03-30T23:16:52.004Z,9.20
2023-03-30T23:19:20.006Z,9.87
2023-03-30T23:21:47.960Z,9.23
2023-03-30T23:24:16.096Z,8.40
2023-03-30T23:26:44.073Z,6.30
2023-03-30T23:29:13.356Z,10.57
2023-03-30T23:31:41.263Z,10.60
2023-03-30T23:34:11.843Z,13.23
2023-03-30T23:36:39.727Z,10.97
2023-03-30T23:39:09.285Z,9.47
2023-03-30T23:41:37.329Z,10.47
2023-03-30T23:44:05.458Z,5.60
2023-03-30T23:46:35.327Z,8.83
2023-03-30T23:49:03.659Z,13.53
2023-03-30T23:51:31.608Z,15.07
2023-03-30T23:54:00.157Z,6.17
2023-03-30T23:56:29.999Z,10.70
2023-03-30T23:58:59.142Z,8.97
